createdAt,value
2023-05-01T00:00:20.126Z,4.00
2023-05-01T00:02:54.579Z,4.23
2023-05-01T00:05:24.832Z,4.40
2023-05-01T00:07:53.648Z,4.57
2023-05-01T00:10:22.467Z,4.77
2023-05-01T00:12:51.328Z,4.33
2023-05-01T00:15:20.258Z,4.20
2023-05-01T00:17:49.282Z,4.27
2023-05-01T00:20:17.913Z,4.80
2023-05-01T00:22:47.835Z,4.43
2023-05-01T00:25:16.801Z,4.27
2023-05-01T00:27:47.255Z,4.27
2023-05-01T00:30:16.112Z,4.33
2023-05-01T00:32:44.986Z,4.20
2023-05-01T00:35:13.842Z,4.73
2023-05-01T00:37:42.729Z,4.33
2023-05-01T00:40:14.089Z,4.90
2023-05-01T00:42:43.325Z,4.43
2023-05-01T00:45:12.828Z,4.83
2023-05-01T00:47:41.944Z,4.10
2023-05-01T00:50:11.982Z,5.00
2023-05-01T00:52:41.179Z,4.50
2023-05-01T00:55:13.047Z,4.90
2023-05-01T00:57:42.443Z,4.70
2023-05-01T01:00:12.835Z,5.03
2023-05-01T01:02:42.179Z,4.70
2023-05-01T01:05:11.689Z,4.90
2023-05-01T01:07:47.325Z,4.90
2023-05-01T01:10:24.977Z,4.00
2023-05-01T01:13:04.572Z,4.60
2023-05-01T01:15:41.591Z,4.90
2023-05-01T01:18:13.902Z,5.50
2023-05-01T01:20:48.126Z,4.63
2023-05-01T01:23:44.088Z,4.77
2023-05-01T01:26:35.339Z,4.83
2023-05-01T01:29:40.570Z,4.80
2023-05-01T01:32:36.050Z,4.83
2023-05-01T01:35:13.908Z,5.07
2023-05-01T01:37:53.176Z,4.90
2023-05-01T01:40:30.897Z,4.50
2023-05-01T01:43:06.745Z,4.47
2023-05-01T01:45:42.515Z,4.53
2023-05-01T01:48:17.817Z,4.80
2023-05-01T01:50:50.249Z,4.27
2023-05-01T01:53:21.717Z,5.53
2023-05-01T01:55:51.796Z,4.93
2023-05-01T01:58:26.242Z,5.17
2023-05-01T02:00:59.313Z,5.27
2023-05-01T02:03:28.830Z,5.57
2023-05-01T02:06:01.982Z,5.60
2023-05-01T02:08:33.005Z,4.97
2023-05-01T02:11:02.572Z,5.57
2023-05-01T02:13:32.724Z,5.10
2023-05-01T02:16:04.090Z,5.67
2023-05-01T02:18:34.851Z,4.73
2023-05-01T02:21:06.983Z,5.50
2023-05-01T02:23:40.223Z,5.43
2023-05-01T02:26:17.667Z,5.43
2023-05-01T02:28:47.228Z,5.17
2023-05-01T02:31:16.133Z,5.60
2023-05-01T02:33:45.779Z,5.57
2023-05-01T02:36:16.230Z,5.70
2023-05-01T02:38:47.292Z,5.33
2023-05-01T02:41:17.626Z,5.53
2023-05-01T02:43:50.325Z,5.53
2023-05-01T02:46:21.799Z,5.53
2023-05-01T02:48:51.786Z,5.60
2023-05-01T02:51:24.954Z,5.87
2023-05-01T02:53:55.389Z,5.33
2023-05-01T02:56:28.129Z,5.57
2023-05-01T02:58:57.299Z,5.83
2023-05-01T03:01:26.016Z,5.60
2023-05-01T03:03:54.959Z,6.13
2023-05-01T03:06:24.863Z,6.10
2023-05-01T03:08:53.640Z,5.50
2023-05-01T03:11:22.466Z,5.30
2023-05-01T03:13:51.394Z,5.73
2023-05-01T03:16:20.226Z,5.67
2023-05-01T03:18:49.099Z,5.50
2023-05-01T03:21:19.230Z,5.97
2023-05-01T03:23:49.578Z,5.57
2023-05-01T03:26:18.343Z,5.47
2023-05-01T03:28:47.558Z,5.90
2023-05-01T03:31:16.668Z,5.93
2023-05-01T03:33:46.374Z,5.97
2023-05-01T03:36:16.489Z,5.93
2023-05-01T03:38:49.462Z,6.00
2023-05-01T03:41:38.538Z,6.07
2023-05-01T03:44:27.702Z,6.20
2023-05-01T03:46:56.688Z,6.00
2023-05-01T03:49:30.382Z,5.87
2023-05-01T03:51:58.923Z,6.40
2023-05-01T03:54:30.544Z,6.20
2023-05-01T03:57:01.929Z,6.07
2023-05-01T03:59:31.595Z,6.30
2023-05-01T04:02:00.813Z,6.27
2023-05-01T04:04:32.456Z,6.73
2023-05-01T04:07:01.997Z,6.40
2023-05-01T04:09:31.907Z,6.57
2023-05-01T04:12:02.329Z,6.10
2023-05-01T04:14:31.507Z,6.70
2023-05-01T04:17:00.974Z,6.67
2023-05-01T04:19:31.752Z,6.57
2023-05-01T04:22:01.658Z,6.43
2023-05-01T04:24:34.119Z,6.30
2023-05-01T04:27:03.127Z,6.77
2023-05-01T04:29:32.476Z,6.27
2023-05-01T04:32:01.754Z,6.70
2023-05-01T04:34:30.978Z,7.10
2023-05-01T04:37:00.049Z,6.73
2023-05-01T04:39:29.324Z,6.53
2023-05-01T04:42:00.699Z,6.60
2023-05-01T04:44:29.601Z,6.90
2023-05-01T04:46:58.281Z,6.60
2023-05-01T04:49:27.016Z,6.50
2023-05-01T04:51:55.757Z,6.50
2023-05-01T04:54:28.116Z,6.97
2023-05-01T04:56:56.839Z,6.53
2023-05-01T04:59:26.910Z,6.70
2023-05-01T05:01:57.553Z,6.90
2023-05-01T05:04:26.269Z,6.53
2023-05-01T05:06:55.046Z,6.33
2023-05-01T05:09:31.523Z,7.07
2023-05-01T05:11:59.909Z,7.00
2023-05-01T05:14:30.359Z,7.10
2023-05-01T05:16:59.131Z,6.80
2023-05-01T05:19:28.757Z,7.53
2023-05-01T05:21:57.546Z,7.00
2023-05-01T05:24:26.330Z,7.17
2023-05-01T05:26:54.996Z,6.87
2023-05-01T05:29:23.742Z,7.40
2023-05-01T05:31:53.962Z,7.13
2023-05-01T05:34:23.145Z,7.13
2023-05-01T05:36:52.024Z,7.50
2023-05-01T05:39:25.105Z,7.50
2023-05-01T05:41:53.961Z,7.40
2023-05-01T05:44:22.935Z,6.90
2023-05-01T05:46:53.653Z,7.23
2023-05-01T05:49:30.526Z,7.27
2023-05-01T05:51:58.882Z,7.80
2023-05-01T05:54:27.757Z,7.70
2023-05-01T05:56:56.763Z,7.90
2023-05-01T05:59:25.792Z,6.73
2023-05-01T06:01:55.889Z,7.20
2023-05-01T06:04:24.321Z,7.00
2023-05-01T06:06:53.350Z,7.28
2023-05-01T06:09:21.799Z,7.10
2023-05-01T06:11:50.431Z,7.10
2023-05-01T06:14:19.302Z,6.75
2023-05-01T06:16:48.297Z,6.90
2023-05-01T06:19:18.622Z,7.20
2023-05-01T06:21:50.167Z,7.10
2023-05-01T06:24:19.694Z,7.20
2023-05-01T06:26:50.472Z,7.30
2023-05-01T06:29:19.193Z,7.70
2023-05-01T06:31:48.196Z,7.72
2023-05-01T06:34:17.921Z,7.70
2023-05-01T06:36:53.647Z,6.75
2023-05-01T06:39:23.019Z,7.13
2023-05-01T06:41:52.340Z,7.00
2023-05-01T06:44:32.735Z,7.00
2023-05-01T06:47:03.692Z,6.53
2023-05-01T06:49:33.880Z,7.32
2023-05-01T06:52:02.669Z,7.30
2023-05-01T06:54:31.413Z,6.82
2023-05-01T06:57:00.129Z,7.38
2023-05-01T06:59:28.843Z,7.40
2023-05-01T07:01:57.556Z,7.28
2023-05-01T07:04:26.090Z,7.53
2023-05-01T07:06:56.217Z,6.88
2023-05-01T07:09:24.587Z,6.97
2023-05-01T07:11:53.226Z,7.88
2023-05-01T07:14:21.890Z,7.43
2023-05-01T07:16:51.025Z,7.10
2023-05-01T07:19:19.524Z,7.43
2023-05-01T07:21:47.930Z,7.15
2023-05-01T07:24:18.016Z,7.32
2023-05-01T07:26:46.713Z,6.95
2023-05-01T07:29:16.562Z,6.82
2023-05-01T07:31:45.999Z,7.28
2023-05-01T07:34:14.771Z,7.40
2023-05-01T07:36:43.647Z,7.18
2023-05-01T07:39:12.366Z,7.18
2023-05-01T07:41:42.456Z,7.78
2023-05-01T07:44:11.172Z,7.40
2023-05-01T07:46:40.359Z,7.85
2023-05-01T07:49:08.961Z,7.55
2023-05-01T07:51:37.641Z,7.28
2023-05-01T07:54:06.382Z,6.88
2023-05-01T07:56:35.041Z,7.30
2023-05-01T07:59:04.681Z,6.93
2023-05-01T08:01:34.905Z,6.60
2023-05-01T08:04:03.745Z,6.95
2023-05-01T08:06:33.003Z,7.45
2023-05-01T08:09:01.734Z,7.43
2023-05-01T08:11:30.641Z,7.47
2023-05-01T08:13:59.124Z,7.20
2023-05-01T08:16:28.942Z,7.45
2023-05-01T08:18:57.676Z,7.35
2023-05-01T08:21:26.563Z,7.30
2023-05-01T08:23:57.178Z,7.28
2023-05-01T08:26:25.626Z,7.53
2023-05-01T08:28:54.273Z,7.20
2023-05-01T08:31:25.184Z,6.90
2023-05-01T08:33:56.750Z,7.57
2023-05-01T08:36:25.556Z,7.20
2023-05-01T08:38:54.234Z,6.95
2023-05-01T08:41:24.232Z,6.93
2023-05-01T08:43:52.967Z,7.03
2023-05-01T08:46:34.864Z,7.50
2023-05-01T08:49:08.307Z,7.25
2023-05-01T08:51:39.782Z,7.43
2023-05-01T08:54:10.765Z,7.15
2023-05-01T08:56:40.700Z,7.63
2023-05-01T08:59:12.229Z,6.90
2023-05-01T09:01:43.255Z,7.30
2023-05-01T09:04:14.353Z,7.40
2023-05-01T09:06:45.069Z,7.60
2023-05-01T09:09:13.855Z,6.78
2023-05-01T09:11:46.006Z,7.30
2023-05-01T09:14:14.680Z,7.40
2023-05-01T09:16:43.573Z,7.10
2023-05-01T09:19:13.469Z,7.15
2023-05-01T09:21:42.609Z,7.03
2023-05-01T09:24:11.855Z,7.55
2023-05-01T09:26:42.861Z,8.18
2023-05-01T09:29:11.742Z,8.20
2023-05-01T09:31:40.658Z,8.10
2023-05-01T09:34:09.381Z,7.85
2023-05-01T09:36:40.925Z,8.15
2023-05-01T09:39:09.324Z,7.97
2023-05-01T09:41:53.688Z,7.70
2023-05-01T09:44:22.135Z,8.35
2023-05-01T09:46:50.817Z,8.50
2023-05-01T09:49:19.811Z,9.00
2023-05-01T09:51:51.256Z,8.75
2023-05-01T09:54:21.100Z,8.98
2023-05-01T09:56:51.216Z,10.00
2023-05-01T09:59:21.144Z,9.60
2023-05-01T10:01:52.263Z,10.10
2023-05-01T10:04:32.464Z,11.10
2023-05-01T10:07:13.709Z,9.97
2023-05-01T10:09:42.596Z,11.13
2023-05-01T10:12:11.360Z,12.57
2023-05-01T10:14:52.535Z,12.17
2023-05-01T10:17:21.385Z,11.47
2023-05-01T10:19:51.504Z,12.50
2023-05-01T10:22:22.057Z,12.40
2023-05-01T10:24:52.286Z,12.03
2023-05-01T10:27:25.082Z,12.07
2023-05-01T10:29:55.602Z,13.67
2023-05-01T10:32:24.595Z,12.90
2023-05-01T10:34:58.501Z,13.03
2023-05-01T10:37:39.119Z,11.87
2023-05-01T10:40:44.904Z,13.70
2023-05-01T10:43:25.903Z,13.67
2023-05-01T10:45:56.128Z,12.03
2023-05-01T10:48:59.519Z,13.10
2023-05-01T10:51:28.777Z,14.40
2023-05-01T10:54:26.956Z,14.37
2023-05-01T10:57:00.056Z,14.47
2023-05-01T10:59:29.569Z,14.43
2023-05-01T11:01:58.480Z,14.17
2023-05-01T11:04:49.229Z,14.53
2023-05-01T11:07:19.827Z,13.67
2023-05-01T11:09:54.399Z,14.03
2023-05-01T11:12:54.924Z,15.90
2023-05-01T11:15:34.365Z,15.43
2023-05-01T11:18:06.136Z,13.70
2023-05-01T11:21:03.952Z,12.97
2023-05-01T11:23:33.131Z,14.33
2023-05-01T11:26:06.763Z,14.33
2023-05-01T11:28:37.114Z,15.37
2023-05-01T11:31:05.905Z,13.53
2023-05-01T11:33:35.704Z,13.20
2023-05-01T11:36:05.019Z,13.67
2023-05-01T11:38:33.786Z,13.40
2023-05-01T11:41:04.454Z,13.77
2023-05-01T11:43:34.820Z,13.70
2023-05-01T11:46:04.124Z,13.83
2023-05-01T11:48:33.248Z,14.07
2023-05-01T11:51:02.037Z,14.00
2023-05-01T11:53:32.005Z,13.57
2023-05-01T11:56:00.969Z,13.60
2023-05-01T11:58:36.502Z,13.43
2023-05-01T12:01:07.501Z,14.20
2023-05-01T12:03:43.771Z,13.68
2023-05-01T12:06:14.255Z,12.65
2023-05-01T12:08:51.426Z,12.50
2023-05-01T12:11:21.526Z,13.05
2023-05-01T12:13:51.536Z,13.48
2023-05-01T12:16:20.387Z,13.93
2023-05-01T12:18:49.314Z,13.77
2023-05-01T12:21:19.008Z,13.50
2023-05-01T12:23:47.721Z,13.93
2023-05-01T12:26:23.620Z,13.68
2023-05-01T12:28:57.672Z,13.00
2023-05-01T12:31:27.898Z,12.50
2023-05-01T12:33:58.465Z,13.18
2023-05-01T12:36:29.220Z,12.30
2023-05-01T12:39:01.499Z,12.33
2023-05-01T12:41:40.446Z,14.18
2023-05-01T12:44:22.493Z,13.40
2023-05-01T12:47:01.051Z,13.40
2023-05-01T12:49:31.610Z,13.80
2023-05-01T12:52:03.599Z,14.20
2023-05-01T12:54:33.988Z,14.63
2023-05-01T12:57:10.778Z,14.87
2023-05-01T12:59:43.108Z,13.83
2023-05-01T13:02:14.935Z,13.77
2023-05-01T13:04:44.949Z,14.03
2023-05-01T13:07:15.047Z,14.50
2023-05-01T13:09:54.339Z,14.30
2023-05-01T13:12:23.420Z,14.70
2023-05-01T13:14:54.468Z,15.33
2023-05-01T13:17:29.258Z,14.40
2023-05-01T13:19:59.026Z,13.32
2023-05-01T13:22:32.906Z,14.00
2023-05-01T13:25:03.061Z,12.90
2023-05-01T13:27:31.701Z,12.63
2023-05-01T13:30:02.605Z,13.60
2023-05-01T13:32:33.152Z,13.13
2023-05-01T13:35:02.723Z,11.70
2023-05-01T13:37:32.542Z,11.93
2023-05-01T13:40:01.546Z,12.60
2023-05-01T13:42:30.720Z,11.73
2023-05-01T13:45:05.695Z,12.23
2023-05-01T13:47:34.498Z,11.55
2023-05-01T13:50:03.340Z,12.18
2023-05-01T13:52:32.344Z,12.30
2023-05-01T13:55:02.676Z,11.30
2023-05-01T13:57:33.013Z,11.75
2023-05-01T14:00:04.407Z,11.52
2023-05-01T14:02:46.517Z,11.10
2023-05-01T14:05:16.295Z,11.00
2023-05-01T14:07:52.087Z,10.98
2023-05-01T14:10:21.141Z,11.52
2023-05-01T14:12:49.763Z,12.23
2023-05-01T14:15:19.751Z,13.35
2023-05-01T14:17:50.749Z,10.55
2023-05-01T14:20:19.190Z,10.80
2023-05-01T14:22:52.479Z,11.02
2023-05-01T14:25:27.189Z,11.20
2023-05-01T14:27:57.678Z,10.85
2023-05-01T14:30:34.084Z,11.15
2023-05-01T14:33:04.232Z,11.27
2023-05-01T14:35:32.845Z,10.43
2023-05-01T14:38:08.979Z,10.80
2023-05-01T14:40:37.620Z,10.82
2023-05-01T14:43:07.098Z,10.45
2023-05-01T14:45:41.898Z,11.00
2023-05-01T14:48:11.592Z,11.02
2023-05-01T14:50:41.206Z,11.75
2023-05-01T14:53:09.633Z,11.45
2023-05-01T14:55:39.535Z,11.52
2023-05-01T14:58:07.840Z,11.77
2023-05-01T15:00:37.911Z,11.50
2023-05-01T15:03:06.685Z,11.30
2023-05-01T15:05:38.422Z,10.38
2023-05-01T15:08:08.307Z,10.18
2023-05-01T15:10:38.693Z,9.75
2023-05-01T15:13:08.940Z,10.45
2023-05-01T15:15:38.878Z,9.70
2023-05-01T15:18:07.970Z,9.73
2023-05-01T15:20:37.640Z,10.65
2023-05-01T15:23:06.297Z,9.95
2023-05-01T15:25:34.940Z,9.50
2023-05-01T15:28:03.491Z,10.05
2023-05-01T15:30:32.209Z,10.55
2023-05-01T15:33:02.020Z,10.50
2023-05-01T15:35:31.244Z,10.45
2023-05-01T15:37:59.899Z,10.77
2023-05-01T15:40:28.627Z,11.35
2023-05-01T15:42:57.415Z,10.90
2023-05-01T15:45:26.206Z,9.95
2023-05-01T15:47:55.095Z,10.63
2023-05-01T15:50:24.887Z,11.50
2023-05-01T15:52:53.640Z,11.32
2023-05-01T15:55:22.767Z,10.68
2023-05-01T15:57:51.435Z,10.68
2023-05-01T16:00:21.885Z,11.77
2023-05-01T16:02:50.696Z,11.02
2023-05-01T16:05:22.396Z,11.48
2023-05-01T16:07:56.536Z,12.00
2023-05-01T16:10:25.637Z,10.88
2023-05-01T16:12:54.858Z,11.68
2023-05-01T16:15:24.427Z,12.48
2023-05-01T16:17:54.885Z,13.40
2023-05-01T16:20:25.325Z,12.20
2023-05-01T16:22:55.325Z,13.05
2023-05-01T16:25:24.680Z,12.48
2023-05-01T16:27:53.324Z,14.77
2023-05-01T16:30:24.639Z,12.38
2023-05-01T16:32:53.376Z,12.65
2023-05-01T16:35:27.692Z,14.23
2023-05-01T16:37:57.541Z,13.77
2023-05-01T16:40:26.148Z,13.48
2023-05-01T16:42:56.278Z,13.85
2023-05-01T16:45:24.980Z,13.65
2023-05-01T16:47:53.704Z,13.40
2023-05-01T16:50:24.744Z,15.13
2023-05-01T16:52:55.003Z,14.35
2023-05-01T16:55:27.040Z,15.05
2023-05-01T16:57:55.768Z,14.95
2023-05-01T17:00:24.427Z,15.27
2023-05-01T17:02:55.109Z,16.15
2023-05-01T17:05:23.997Z,15.60
2023-05-01T17:07:52.636Z,15.55
2023-05-01T17:10:21.263Z,17.00
2023-05-01T17:12:51.360Z,15.98
2023-05-01T17:15:20.068Z,15.90
2023-05-01T17:17:49.132Z,16.15
2023-05-01T17:20:18.070Z,15.15
2023-05-01T17:22:46.942Z,15.20
2023-05-01T17:25:15.739Z,14.80
2023-05-01T17:27:44.410Z,14.45
2023-05-01T17:30:15.112Z,15.40
2023-05-01T17:32:43.894Z,15.73
2023-05-01T17:35:12.595Z,16.15
2023-05-01T17:37:41.288Z,14.95
2023-05-01T17:40:12.098Z,15.52
2023-05-01T17:42:40.947Z,16.23
2023-05-01T17:45:11.230Z,16.52
2023-05-01T17:47:46.571Z,16.35
2023-05-01T17:50:15.834Z,15.95
2023-05-01T17:52:45.338Z,15.77
2023-05-01T17:55:17.112Z,16.88
2023-05-01T17:57:47.844Z,16.73
2023-05-01T18:00:17.663Z,15.55
2023-05-01T18:02:47.905Z,15.45
2023-05-01T18:05:17.555Z,16.17
2023-05-01T18:07:46.261Z,16.52
2023-05-01T18:10:14.624Z,16.30
2023-05-01T18:12:43.536Z,16.23
2023-05-01T18:15:13.751Z,16.40
2023-05-01T18:17:44.531Z,16.73
2023-05-01T18:20:14.967Z,17.60
2023-05-01T18:22:43.582Z,18.40
2023-05-01T18:25:12.543Z,17.42
2023-05-01T18:27:41.740Z,16.53
2023-05-01T18:30:11.204Z,18.15
2023-05-01T18:32:48.365Z,17.25
2023-05-01T18:35:19.058Z,16.88
2023-05-01T18:37:48.347Z,17.75
2023-05-01T18:40:17.089Z,17.90
2023-05-01T18:42:46.512Z,17.70
2023-05-01T18:45:15.148Z,17.67
2023-05-01T18:47:43.578Z,17.47
2023-05-01T18:50:13.267Z,17.30
2023-05-01T18:52:42.910Z,17.35
2023-05-01T18:55:12.270Z,17.58
2023-05-01T18:57:43.705Z,16.73
2023-05-01T19:00:14.583Z,16.67
2023-05-01T19:02:43.451Z,16.00
2023-05-01T19:05:13.131Z,16.27
2023-05-01T19:07:42.887Z,16.37
2023-05-01T19:10:12.052Z,16.23
2023-05-01T19:12:41.987Z,16.55
2023-05-01T19:15:11.692Z,16.50
2023-05-01T19:17:41.088Z,17.15
2023-05-01T19:20:10.905Z,17.15
2023-05-01T19:22:39.283Z,16.40
2023-05-01T19:25:10.718Z,17.70
2023-05-01T19:27:39.155Z,19.30
2023-05-01T19:30:09.833Z,17.13
2023-05-01T19:32:39.012Z,16.17
2023-05-01T19:35:10.171Z,16.30
2023-05-01T19:37:39.778Z,17.17
2023-05-01T19:40:11.543Z,18.03
2023-05-01T19:42:39.978Z,19.00
2023-05-01T19:45:09.994Z,17.43
2023-05-01T19:47:38.764Z,17.27
2023-05-01T19:50:09.368Z,16.80
2023-05-01T19:52:38.044Z,16.70
2023-05-01T19:55:08.154Z,16.27
2023-05-01T19:57:38.167Z,16.27
2023-05-01T20:00:11.697Z,15.75
2023-05-01T20:02:40.518Z,15.35
2023-05-01T20:05:10.038Z,14.70
2023-05-01T20:07:39.231Z,14.80
2023-05-01T20:10:09.708Z,14.30
2023-05-01T20:12:39.952Z,15.30
2023-05-01T20:15:10.191Z,14.55
2023-05-01T20:17:38.949Z,15.50
2023-05-01T20:20:08.548Z,14.47
2023-05-01T20:22:36.873Z,14.57
2023-05-01T20:25:09.348Z,15.60
2023-05-01T20:27:39.957Z,14.43
2023-05-01T20:30:11.578Z,14.77
2023-05-01T20:32:42.700Z,14.10
2023-05-01T20:35:12.052Z,14.67
2023-05-01T20:37:41.408Z,13.70
2023-05-01T20:40:11.704Z,14.00
2023-05-01T20:42:42.998Z,14.80
2023-05-01T20:45:11.772Z,16.17
2023-05-01T20:47:40.470Z,14.13
2023-05-01T20:50:09.733Z,16.57
2023-05-01T20:52:39.001Z,17.97
2023-05-01T20:55:08.997Z,26.13
2023-05-01T20:57:37.684Z,24.40
2023-05-01T21:00:09.470Z,27.37
2023-05-01T21:02:39.385Z,27.17
2023-05-01T21:05:10.224Z,17.33
2023-05-01T21:07:39.626Z,15.07
2023-05-01T21:10:11.159Z,14.77
2023-05-01T21:12:40.249Z,15.13
2023-05-01T21:15:12.286Z,15.80
2023-05-01T21:17:43.377Z,17.23
2023-05-01T21:20:16.980Z,18.40
2023-05-01T21:22:48.053Z,17.65
2023-05-01T21:25:24.272Z,17.67
2023-05-01T21:27:52.981Z,17.13
2023-05-01T21:30:30.269Z,17.27
2023-05-01T21:32:58.890Z,16.33
2023-05-01T21:35:28.824Z,16.95
2023-05-01T21:37:57.854Z,17.58
2023-05-01T21:40:27.909Z,16.60
2023-05-01T21:42:56.844Z,16.80
2023-05-01T21:45:28.148Z,16.38
2023-05-01T21:47:57.805Z,16.70
2023-05-01T21:50:27.774Z,16.27
2023-05-01T21:52:56.443Z,16.33
2023-05-01T21:55:27.584Z,14.95
2023-05-01T21:57:56.323Z,15.18
2023-05-01T22:00:27.360Z,15.27
2023-05-01T22:02:56.595Z,15.18
2023-05-01T22:05:25.358Z,15.47
2023-05-01T22:07:54.998Z,15.40
2023-05-01T22:14:47.129Z,13.75
2023-05-01T22:17:23.902Z,13.75
2023-05-01T22:19:52.726Z,12.75
2023-05-01T22:22:21.196Z,12.70
2023-05-01T22:24:49.909Z,12.97
2023-05-01T22:27:18.591Z,11.55
2023-05-01T22:29:47.217Z,12.03
2023-05-01T22:32:17.034Z,11.33
2023-05-01T22:34:45.794Z,11.95
2023-05-01T22:37:14.271Z,11.50
2023-05-01T22:39:43.102Z,12.50
2023-05-01T22:42:11.910Z,12.23
2023-05-01T22:44:40.988Z,12.10
2023-05-01T22:47:09.539Z,13.43
2023-05-01T22:49:39.317Z,12.73
2023-05-01T22:52:08.372Z,13.47
2023-05-01T22:54:36.669Z,12.60
2023-05-01T22:57:05.404Z,12.57
2023-05-01T22:59:34.089Z,12.30
2023-05-01T23:02:04.982Z,13.60
2023-05-01T23:04:33.973Z,12.93
2023-05-01T23:07:03.827Z,12.90
2023-05-01T23:09:33.087Z,13.13
2023-05-01T23:12:02.035Z,13.33
2023-05-01T23:14:30.758Z,12.43
2023-05-01T23:17:02.012Z,13.60
2023-05-01T23:19:30.715Z,13.80
2023-05-01T23:22:09.705Z,13.47
2023-05-01T23:24:44.728Z,13.87
2023-05-01T23:27:15.865Z,14.67
2023-05-01T23:29:56.728Z,13.70
2023-05-01T23:32:29.374Z,12.63
2023-05-01T23:35:04.249Z,12.57
2023-05-01T23:37:34.319Z,12.23
2023-05-01T23:40:02.842Z,12.07
2023-05-01T23:42:32.124Z,12.03
2023-05-01T23:45:01.297Z,11.50
2023-05-01T23:47:30.623Z,11.87
2023-05-01T23:49:59.671Z,11.63
2023-05-01T23:52:28.504Z,12.17
2023-05-01T23:54:58.605Z,11.90
2023-05-01T23:57:27.503Z,13.00
2023-05-01T23:59:56.790Z,11.93
